Terminal Aerodrome Forecast
Issued by NWS

Home | Current Version | Previous Version | Text Only | Print | Product List | Glossary On
Versions: 1 2 3 4 5 6 7 8 9 10 11 12 13 14 15 16 17 18 19 20 21 22 23 24 25 26 27 28 29
000
FTUS44 KFWD 271510 AAA
TAFAFW
TAF AMD
KAFW 271510Z 2715/2812 16004KT 5SM BR BKN005 OVC010
      TEMPO 2716/2717 6SM BR SCT005 BKN010
     FM271700 18015KT P6SM VCTS BKN015CB
     FM272000 18015KT P6SM SCT020 BKN050
     FM272200 18014KT P6SM SCT050
     FM280500 18013KT P6SM OVC011=

USA.gov is the U.S. government's official web portal to all federal, state and local government web resources and services.